This is the latest recevied weather packets stored in our database for station/object VK5GR-12. If no packets are shown the sender has not sent any weather packets the latest 10 day(s).
| Time | Temp. | Humidity | Pressure | Rain* | Wind** | Luminosity | Snow |
|---|---|---|---|---|---|---|---|
| 1777690183 | 19.44° C | 72% | 1009.3 hPa | 0 mm | - | 205 W/m² | - |
| 1777689281 | 20° C | 73% | 1009.3 hPa | 0 mm | - | 242 W/m² | - |
| 1777688378 | 18.89° C | 76% | 1009.5 hPa | 0 mm | - | 227 W/m² | - |
| 1777672124 | 23.33° C | 42% | 1008.5 hPa | 0 mm | - | 2 W/m² | - |
| 1777667609 | 23.89° C | 40% | 1008.7 hPa | 0 mm | - | 0 W/m² | - |
| 1777666705 | 23.89° C | 40% | 1008.8 hPa | 0 mm | - | 0 W/m² | - |
| 1777664897 | 23.33° C | 40% | 1009.2 hPa | 0 mm | - | 0 W/m² | - |
| 1777663091 | 23.33° C | 39% | 1009.3 hPa | 0 mm | - | 0 W/m² | - |
| 1777660381 | 23.89° C | 39% | 1009.4 hPa | 0 mm | - | 0 W/m² | - |
| 1777659476 | 23.33° C | 39% | 1009.5 hPa | 0 mm | - | 0 W/m² | - |
| 1777656767 | 23.89° C | 39% | 1010 hPa | 0 mm | - | 0 W/m² | - |
| 1777655865 | 23.89° C | 39% | 1010.4 hPa | 0 mm | - | 0 W/m² | - |
| 1777653156 | 23.89° C | 38% | 1010.7 hPa | 0 mm | - | 0 W/m² | - |
| 1777652252 | 23.89° C | 38% | 1011.1 hPa | 0 mm | - | 0 W/m² | - |
| 1777651348 | 23.89° C | 38% | 1011.2 hPa | 0 mm | - | 0 W/m² | - |
| 1777650445 | 23.89° C | 38% | 1011.3 hPa | 0 mm | - | 0 W/m² | - |
| 1777649543 | 23.89° C | 38% | 1011.4 hPa | 0 mm | - | 0 W/m² | - |
| 1777648639 | 24.44° C | 38% | 1011.6 hPa | 0 mm | - | 0 W/m² | - |
| 1777647740 | 24.44° C | 37% | 1011.4 hPa | 0 mm | - | 0 W/m² | - |
| 1777646836 | 24.44° C | 37% | 1011.6 hPa | 0 mm | - | 0 W/m² | - |
| 1777645932 | 24.44° C | 36% | 1011.9 hPa | 0 mm | - | 0 W/m² | - |
| 1777645032 | 24.44° C | 36% | 1012 hPa | 0 mm | - | 0 W/m² | - |
| 1777644128 | 24.44° C | 36% | 1012.2 hPa | 0 mm | - | 0 W/m² | - |
| 1777643225 | 24.44° C | 36% | 1012.5 hPa | 0 mm | - | 0 W/m² | - |
| 1777642321 | 24.44° C | 37% | 1012.7 hPa | 0 mm | - | 0 W/m² | - |
* Rain latest hour (hover to see other rain measurements)
** Current wind speed in m/s (hover to see current wind gust speed)